Portada
METAR-TAF:

METAR-TAF

Aeropuertos :

Rota, España

Base Naval de Rota

latitud: 36-39N, longitud: 006-21W, altitud: 26 m

Observación

El informe se hizo hace 24 minutos, a las 18:00 UTC
Viento 7 kt del oeste
Temperatura 24°C
Humedad 78%
Presión 1017 hPa
Visibilidad 10 km o más
sin nubes por debajo de 1500 m y sin presencia de cumulonimbus.

METAR: LERT 231800Z 28007KT CAVOK 24/20 Q1017 NOSIG

Hora: 20:24 (18:24 UTC)

Pronóstico

El informe se hizo hace 1 hora y 24 minutos, a las 17:00 UTC
Pronóstico válido del 23 a las 18 UTC al 24 a las 03 UTC
Viento 10 kt del oeste
Visibilidad 10 km o más
sin nubes por debajo de 1500 m y sin presencia de cumulonimbus.
Evolucionando progresivamente
del 23 a las 19 UTC al 23 a las 21 UTC
Viento 2 kt con dirección variable

TAF: LERT 231700Z 2318/2403 26010KT CAVOK BECMG 2319/2321 VRB02KT

Observaciones y pronósticos meteorológicos de más de 4000 aeropuertos (mensajes METAR y TAF).

Los puntos amarillos y rojos representan las estaciones disponibles.

Ponga el ratón en el punto deseado para ver el nombre de la estación.

Haga clic para ver las observaciones y los pronósticos meteorológicos.

Para cambiar el mapa : haga clic en los botones verdes con una cruz de color negro para hacer un zoom, en el botón verde con un guión para alejar o en las flechas verdes para mapas adyacentes.


METAR-TAF: